Terminal Aerodrome Forecast
Issued by NWS

Home | Current Version | Previous Version | Text Only | Print | Product List | Glossary On
Versions: 1 2 3 4 5 6 7 8 9 10 11 12 13 14 15
000
FTUS44 KLZK 282300
TAFHOT
TAF
KHOT 282320Z 0100/0124 07004KT P6SM VCSH OVC050
     FM010600 06003KT 5SM -RA BR SCT015 OVC030
     FM010900 06003KT 5SM -RA BR SCT007 OVC020
     FM011200 06003KT 5SM -RA BR OVC007
     FM011800 04002KT 3SM BR OVC004=

USA.gov is the U.S. government's official web portal to all federal, state and local government web resources and services.